Aérodrome :
LOGIN :

S'inscrire | Disclaimer

   EN    FR    IT 

 










Légende :    VFR   VFR Marginal   IFR   IFR Intensif   IFR Très Intensif
Visi : 
Plafond : 
>= 8 km
>= 3000ft
5 à 8 km
1000 à 3000 ft
1500m à 5 km
500 à 1000 ft
800 à 1500m
200 à 500 ft
< 800m
< 200 ft
Symboles :   Orages  Brouillard  Fortes neiges  Fortes précipitations  Vent > 20 kt
SIGMETs :   Divers  Orages  Givrage  Turbulence  Onde Orograph.  Cendres Volcan.






- Altitude de l'aérodrome : 506 ft
- Code IATA : GOT


ESGG - Landvetter

DERNIER METAR :
  • 010450Z 24007KT 9999 BKN006 03/01 Q1010 R21/09//95

METARs EXPIRÉS :
  • 010420Z 24008KT 9999 BKN006 03/02 Q1010 R21/09//95
  • 010350Z 24008KT 9999 BKN006 03/02 Q1010 R21/09//95
  • 010320Z 24008KT 9999 OVC006 03/02 Q1011 R21/09//95
  • 010250Z 25008KT 9999 OVC007 03/01 Q1011 R21/09//95
  • 010220Z 23010KT 9999 BKN008 02/01 Q1011 R21/09//95
  • 010150Z 25007KT 9999 BKN008 03/01 Q1012 R21/09//95

TAF TAF ESGG
Valide du 01 à 00h jusqu'au 02 à 00h UTC


312330Z 0100/0124 25010KT 9999 OVC007
PROB40 0100/0108 SCT010
BECMG 0108/0110 SCT015
BECMG 0110/0112 27015G25KT
PROB40 0118/0124 BKN013



MET'MAP, la Météo Aéronautique d'un coup d'oeil ! - Copyright ORBIFLY Décembre 2007 - Disclaimer

ORBIFLY MET'MAP TEAM :

Programmation & Développement : Alexandra Zaïnal
Sur une idée originale de : Baudouin d'Aumeries
Assistance à la programmation : Marc-Olivier Méhu
Soutien technique & logistique : Manuel Goepfert

Contact : metmap@orbifly.com




SOURCES & CREDITS :

   NOAA